createdAt,value
2019-04-21T00:00:31.821Z,81.43
2019-04-21T00:01:37.644Z,82.19
2019-04-21T00:02:36.057Z,82.19
2019-04-21T00:03:38.316Z,82.29
2019-04-21T00:04:43.182Z,82.71
2019-04-21T00:05:55.275Z,82.09
2019-04-21T00:06:48.124Z,82.29
2019-04-21T00:07:54.293Z,82.50
2019-04-21T00:08:50.870Z,82.81
2019-04-21T00:09:53.745Z,82.29
2019-04-21T00:10:59.453Z,82.29
2019-04-21T00:11:48.318Z,82.40
2019-04-21T00:12:46.123Z,81.68
2019-04-21T00:13:42.562Z,81.37
2019-04-21T00:14:43.628Z,82.92
2019-04-21T00:15:40.647Z,82.34
2019-04-21T00:16:39.368Z,82.75
2019-04-21T00:17:32.063Z,82.23
2019-04-21T00:18:40.657Z,82.54
2019-04-21T00:19:33.965Z,82.34
2019-04-21T00:20:38.201Z,82.23
2019-04-21T00:21:39.584Z,83.16
2019-04-21T00:22:44.259Z,83.37
2019-04-21T00:23:49.926Z,84.23
2019-04-21T00:24:45.083Z,84.03
2019-04-21T00:25:43.476Z,84.09
2019-04-21T00:26:49.505Z,83.89
2019-04-21T00:27:46.534Z,83.51
2019-04-21T00:29:01.742Z,83.51
2019-04-21T00:29:50.378Z,83.93
2019-04-21T00:30:54.562Z,83.31
2019-04-21T00:31:45.803Z,83.51
2019-04-21T00:32:41.570Z,83.93
2019-04-21T00:33:34.297Z,83.51
2019-04-21T00:34:31.915Z,83.51
2019-04-21T00:35:35.006Z,84.23
2019-04-21T00:36:43.962Z,83.72
2019-04-21T00:37:53.429Z,83.41
2019-04-21T00:38:59.090Z,83.14
2019-04-21T00:40:00.223Z,83.55
2019-04-21T00:40:52.120Z,83.34
2019-04-21T00:41:56.217Z,84.38
2019-04-21T00:42:52.477Z,83.86
2019-04-21T00:43:44.746Z,85.11
2019-04-21T00:44:45.821Z,84.44
2019-04-21T00:45:42.229Z,84.38
2019-04-21T00:46:50.285Z,84.07
2019-04-21T00:47:52.919Z,84.28
2019-04-21T00:48:54.101Z,84.17
2019-04-21T00:49:53.906Z,84.38
2019-04-21T00:51:11.065Z,84.52
2019-04-21T00:52:08.680Z,85.04
2019-04-21T00:53:13.394Z,85.97
2019-04-21T00:53:57.931Z,85.77
2019-04-21T00:54:51.999Z,85.97
2019-04-21T00:55:52.004Z,85.56
2019-04-21T00:56:56.714Z,86.29
2019-04-21T00:58:00.380Z,86.29
2019-04-21T00:58:53.424Z,86.08
2019-04-21T00:59:55.653Z,86.18
2019-04-21T01:00:55.057Z,86.08
2019-04-21T01:01:47.718Z,85.56
2019-04-21T01:02:58.014Z,85.87
2019-04-21T01:03:52.964Z,85.87
2019-04-21T01:05:01.640Z,85.56
2019-04-21T01:05:58.889Z,85.60
2019-04-21T01:06:55.604Z,85.60
2019-04-21T01:07:56.230Z,86.29
2019-04-21T01:08:46.333Z,86.02
2019-04-21T01:09:45.281Z,85.91
2019-04-21T01:10:45.206Z,85.91
2019-04-21T01:11:49.276Z,86.22
2019-04-21T01:13:02.638Z,85.71
2019-04-21T01:14:56.907Z,85.91
2019-04-21T01:15:54.622Z,85.91
2019-04-21T01:16:52.661Z,85.50
2019-04-21T01:17:54.644Z,85.60
2019-04-21T01:18:50.562Z,85.91
2019-04-21T01:19:48.090Z,84.56
2019-04-21T01:20:30.172Z,85.04
2019-04-21T01:21:29.103Z,86.22
2019-04-21T01:22:36.049Z,86.43
2019-04-21T01:23:29.716Z,85.91
2019-04-21T01:24:34.717Z,86.12
2019-04-21T01:25:37.286Z,86.33
2019-04-21T01:26:42.764Z,86.16
2019-04-21T01:27:51.046Z,86.43
2019-04-21T01:28:54.431Z,86.36
2019-04-21T01:29:58.778Z,86.78
2019-04-21T01:30:54.819Z,86.47
2019-04-21T01:31:51.133Z,86.88
2019-04-21T01:32:57.558Z,86.88
2019-04-21T01:33:50.864Z,86.88
2019-04-21T01:34:53.007Z,86.36
2019-04-21T01:35:47.988Z,86.88
2019-04-21T01:36:46.071Z,86.78
2019-04-21T01:38:10.988Z,86.47
2019-04-21T01:38:58.331Z,86.78
2019-04-21T01:39:53.291Z,86.99
2019-04-21T01:40:54.463Z,87.19
2019-04-21T01:41:55.437Z,86.88
2019-04-21T01:42:51.400Z,86.88
2019-04-21T01:43:50.338Z,87.09
2019-04-21T01:44:53.494Z,86.88
2019-04-21T01:45:48.972Z,86.47
2019-04-21T01:46:45.737Z,86.36
2019-04-21T01:47:46.438Z,86.47
2019-04-21T01:48:45.892Z,87.24
2019-04-21T01:49:43.194Z,86.93
2019-04-21T01:50:46.810Z,87.13
2019-04-21T01:52:03.133Z,87.13
2019-04-21T01:52:57.626Z,87.55
2019-04-21T01:53:48.277Z,88.28
2019-04-21T01:54:48.213Z,87.86
2019-04-21T01:55:52.856Z,87.86
2019-04-21T01:56:44.813Z,87.86
2019-04-21T01:57:42.645Z,87.96
2019-04-21T01:58:42.794Z,87.96
2019-04-21T01:59:44.812Z,87.65
2019-04-21T02:00:46.967Z,87.86
2019-04-21T02:01:52.335Z,87.86
2019-04-21T02:02:54.645Z,87.96
2019-04-21T02:03:54.365Z,87.76
2019-04-21T02:05:00.630Z,87.79
2019-04-21T02:05:52.016Z,88.00
2019-04-21T02:06:50.512Z,87.79
2019-04-21T02:07:50.582Z,87.79
2019-04-21T02:08:50.988Z,87.65
2019-04-21T02:09:51.204Z,87.90
2019-04-21T02:10:56.024Z,88.21
2019-04-21T02:11:58.099Z,88.62
2019-04-21T02:12:50.918Z,88.62
2019-04-21T02:13:57.283Z,88.21
2019-04-21T02:15:06.361Z,88.31
2019-04-21T02:15:56.633Z,88.15
2019-04-21T02:16:54.381Z,88.52
2019-04-21T02:17:46.993Z,89.04
2019-04-21T02:18:52.978Z,88.94
2019-04-21T02:19:45.835Z,89.04
2019-04-21T02:20:40.302Z,89.04
2019-04-21T02:21:43.661Z,88.56
2019-04-21T02:23:06.064Z,88.98
2019-04-21T02:23:54.595Z,88.98
2019-04-21T02:24:58.342Z,88.31
2019-04-21T02:25:52.703Z,88.35
2019-04-21T02:26:54.300Z,88.56
2019-04-21T02:27:49.910Z,88.56
2019-04-21T02:28:55.855Z,88.77
2019-04-21T02:29:55.871Z,88.46
2019-04-21T02:31:05.984Z,88.87
2019-04-21T02:32:05.690Z,88.98
2019-04-21T02:33:19.501Z,88.67
2019-04-21T02:33:58.288Z,88.25
2019-04-21T02:36:20.691Z,88.98
2019-04-21T02:38:01.261Z,88.67
2019-04-21T02:40:15.032Z,89.02
2019-04-21T02:43:07.365Z,89.12
2019-04-21T02:45:06.692Z,89.02
2019-04-21T02:46:54.352Z,88.81
2019-04-21T02:50:52.976Z,89.89
2019-04-21T02:52:09.180Z,89.85
2019-04-21T02:53:00.813Z,89.75
2019-04-21T02:56:01.630Z,89.89
2019-04-21T02:57:01.420Z,90.62
2019-04-21T02:58:06.140Z,90.93
2019-04-21T02:59:02.275Z,90.93
2019-04-21T03:02:16.233Z,90.62
2019-04-21T03:03:09.263Z,90.62
2019-04-21T03:04:00.601Z,90.52
2019-04-21T03:05:01.847Z,91.04
2019-04-21T03:05:58.635Z,91.56
2019-04-21T03:07:09.700Z,91.46
2019-04-21T03:08:07.168Z,91.39
2019-04-21T03:08:58.749Z,91.46
2019-04-21T03:10:00.078Z,90.72
2019-04-21T03:10:59.306Z,90.66
2019-04-21T03:12:05.427Z,90.56
2019-04-21T03:14:13.659Z,90.97
2019-04-21T03:15:04.052Z,91.08
2019-04-21T03:16:11.812Z,91.28
2019-04-21T03:16:57.739Z,91.18
2019-04-21T03:18:12.954Z,91.08
2019-04-21T03:19:20.007Z,90.87
2019-04-21T03:20:03.131Z,90.87
2019-04-21T03:22:07.202Z,91.71
2019-04-21T03:25:04.470Z,91.60
2019-04-21T03:26:03.367Z,91.28
2019-04-21T03:27:12.615Z,91.50
2019-04-21T03:28:11.254Z,91.53
2019-04-21T03:30:06.508Z,91.28
2019-04-21T03:31:19.526Z,91.75
2019-04-21T03:35:37.777Z,91.71
2019-04-21T03:36:38.432Z,91.50
2019-04-21T03:38:57.024Z,91.64
2019-04-21T03:39:59.844Z,91.85
2019-04-21T03:40:57.885Z,91.53
2019-04-21T03:43:08.026Z,91.75
2019-04-21T03:43:59.189Z,92.02
2019-04-21T03:47:11.318Z,91.85
2019-04-21T03:48:01.369Z,92.06
2019-04-21T03:49:04.742Z,91.96
2019-04-21T03:50:08.860Z,91.75
2019-04-21T03:50:56.243Z,91.64
2019-04-21T03:52:02.975Z,92.21
2019-04-21T03:55:25.530Z,92.62
2019-04-21T03:56:00.639Z,92.72
2019-04-21T03:57:10.575Z,92.58
2019-04-21T04:00:09.048Z,92.47
2019-04-21T04:01:05.549Z,92.68
2019-04-21T04:02:10.743Z,92.62
2019-04-21T04:03:10.583Z,92.41
2019-04-21T04:04:06.267Z,92.47
2019-04-21T04:05:08.856Z,92.79
2019-04-21T04:07:18.741Z,92.72
2019-04-21T04:08:08.331Z,92.58
2019-04-21T04:10:04.008Z,92.47
2019-04-21T04:11:14.847Z,92.37
2019-04-21T04:11:56.478Z,92.62
2019-04-21T04:12:57.540Z,92.31
2019-04-21T04:14:54.987Z,92.72
2019-04-21T04:16:06.100Z,92.62
2019-04-21T04:17:04.800Z,92.72
2019-04-21T04:17:54.246Z,92.93
2019-04-21T04:19:54.608Z,92.62
2019-04-21T04:21:07.558Z,93.24
2019-04-21T04:22:09.162Z,92.93
2019-04-21T04:24:16.394Z,92.72
2019-04-21T04:25:11.487Z,92.52
2019-04-21T04:25:57.737Z,92.31
2019-04-21T04:27:08.102Z,92.83
2019-04-21T04:29:04.219Z,92.72
2019-04-21T04:29:59.025Z,92.62
2019-04-21T04:32:16.571Z,92.27
2019-04-21T04:32:59.346Z,92.47
2019-04-21T04:34:09.994Z,92.06
2019-04-21T04:35:03.318Z,91.85
2019-04-21T04:37:07.420Z,91.27
2019-04-21T04:37:57.298Z,91.43
2019-04-21T04:39:18.025Z,91.64
2019-04-21T04:40:05.704Z,91.75
2019-04-21T04:42:14.051Z,91.75
2019-04-21T04:42:57.009Z,91.85
2019-04-21T04:44:07.107Z,91.64
2019-04-21T04:45:08.154Z,91.60
2019-04-21T04:45:53.715Z,91.91
2019-04-21T04:47:05.414Z,91.81
2019-04-21T04:47:59.848Z,91.43
2019-04-21T04:49:01.711Z,91.53
2019-04-21T04:49:51.589Z,91.85
2019-04-21T04:54:03.856Z,91.39
2019-04-21T04:56:01.296Z,91.71
2019-04-21T04:57:59.251Z,91.81
2019-04-21T05:00:15.662Z,90.97
2019-04-21T05:01:08.685Z,91.39
2019-04-21T05:02:15.254Z,91.50
2019-04-21T05:02:55.945Z,91.60
2019-04-21T05:03:56.924Z,91.50
2019-04-21T05:05:11.335Z,91.46
2019-04-21T05:06:10.442Z,90.72
2019-04-21T05:06:56.374Z,90.72
2019-04-21T05:08:14.960Z,90.20
2019-04-21T05:09:59.684Z,90.00
2019-04-21T05:11:20.684Z,89.58
2019-04-21T05:12:52.621Z,90.10
2019-04-21T05:14:02.994Z,90.00
2019-04-21T05:15:04.509Z,89.89
2019-04-21T05:16:01.928Z,89.89
2019-04-21T05:17:17.183Z,89.48
2019-04-21T05:19:10.494Z,90.10
2019-04-21T05:20:08.621Z,90.00
2019-04-21T05:21:03.589Z,89.85
2019-04-21T05:21:55.477Z,89.43
2019-04-21T05:23:46.975Z,89.58
2019-04-21T05:24:44.253Z,89.54
2019-04-21T05:25:43.197Z,89.85
2019-04-21T05:26:44.804Z,89.64
2019-04-21T05:27:43.340Z,89.02
2019-04-21T05:28:43.843Z,89.02
2019-04-21T05:29:53.557Z,88.71
2019-04-21T05:30:50.117Z,89.02
2019-04-21T05:31:50.928Z,89.33
2019-04-21T05:32:52.603Z,88.87
2019-04-21T05:33:44.899Z,88.46
2019-04-21T05:34:50.395Z,88.77
2019-04-21T05:35:49.312Z,88.56
2019-04-21T05:36:46.035Z,88.46
2019-04-21T05:37:47.413Z,88.25
2019-04-21T05:38:43.580Z,87.84
2019-04-21T05:39:43.544Z,88.04
2019-04-21T05:40:38.975Z,87.73
2019-04-21T05:41:38.654Z,87.27
2019-04-21T05:42:41.758Z,87.17
2019-04-21T05:43:48.451Z,87.38
2019-04-21T05:45:53.530Z,87.38
2019-04-21T05:47:05.954Z,87.38
2019-04-21T05:47:55.952Z,87.90
2019-04-21T05:48:46.936Z,88.10
2019-04-21T05:49:45.238Z,87.79
2019-04-21T05:50:46.223Z,87.86
2019-04-21T05:51:44.021Z,87.27
2019-04-21T05:52:40.761Z,86.61
2019-04-21T05:53:50.567Z,86.30
2019-04-21T05:55:49.121Z,86.19
2019-04-21T05:56:51.028Z,85.95
2019-04-21T05:57:46.586Z,85.57
2019-04-21T05:58:54.079Z,85.88
2019-04-21T05:59:51.612Z,85.68
2019-04-21T06:01:06.312Z,86.26
2019-04-21T06:02:08.286Z,86.26
2019-04-21T06:02:56.312Z,86.05
2019-04-21T06:03:54.838Z,86.02
2019-04-21T06:05:05.747Z,85.53
2019-04-21T06:06:56.942Z,85.29
2019-04-21T06:07:46.162Z,85.19
2019-04-21T06:08:48.329Z,85.39
2019-04-21T06:10:00.019Z,85.71
2019-04-21T06:11:51.322Z,85.60
2019-04-21T06:12:57.888Z,85.56
2019-04-21T06:13:54.965Z,85.50
2019-04-21T06:16:03.976Z,84.83
2019-04-21T06:17:13.480Z,84.63
2019-04-21T06:17:49.271Z,84.00
2019-04-21T06:18:52.946Z,84.11
2019-04-21T06:20:54.722Z,84.28
2019-04-21T06:21:44.887Z,84.38
2019-04-21T06:22:53.205Z,84.12
2019-04-21T06:23:45.647Z,80.48
2019-04-21T06:25:16.299Z,73.57
2019-04-21T06:26:14.794Z,66.37
2019-04-21T06:27:04.952Z,60.67
2019-04-21T06:27:50.818Z,57.47
2019-04-21T06:29:02.989Z,54.16
2019-04-21T06:29:46.511Z,50.93
2019-04-21T06:30:59.296Z,48.49
2019-04-21T06:32:16.317Z,45.97
2019-04-21T06:32:49.185Z,44.51
2019-04-21T06:33:50.835Z,42.74
2019-04-21T06:35:07.180Z,42.07
2019-04-21T06:36:12.669Z,40.84
2019-04-21T06:37:05.831Z,40.11
2019-04-21T06:38:05.664Z,39.69
2019-04-21T06:39:01.760Z,38.62
2019-04-21T06:40:01.942Z,37.90
2019-04-21T06:40:48.440Z,37.59
2019-04-21T06:41:46.802Z,37.07
2019-04-21T06:42:50.224Z,36.53
2019-04-21T06:43:56.330Z,35.58
2019-04-21T06:44:57.687Z,34.34
2019-04-21T06:45:54.394Z,33.93
2019-04-21T06:46:47.066Z,33.22
2019-04-21T06:47:49.910Z,33.61
2019-04-21T06:48:55.426Z,33.08
2019-04-21T06:49:50.855Z,31.84
2019-04-21T06:50:52.525Z,31.21
2019-04-21T06:51:48.280Z,30.60
2019-04-21T06:52:57.870Z,30.19
2019-04-21T06:53:53.978Z,30.47
2019-04-21T06:54:48.227Z,29.47
2019-04-21T06:55:44.216Z,30.07
2019-04-21T06:56:51.322Z,28.88
2019-04-21T06:57:44.429Z,29.07
2019-04-21T06:58:48.173Z,29.77
2019-04-21T06:59:43.516Z,29.57
2019-04-21T07:00:41.312Z,29.57
2019-04-21T07:01:52.742Z,29.37
2019-04-21T07:03:00.085Z,30.65
2019-04-21T07:04:01.684Z,28.25
2019-04-21T07:05:08.993Z,28.23
2019-04-21T07:05:57.233Z,27.81
2019-04-21T07:06:57.406Z,27.09
2019-04-21T07:07:55.199Z,27.67
2019-04-21T07:08:56.609Z,26.97
2019-04-21T07:09:52.823Z,26.46
2019-04-21T07:10:46.308Z,26.26
2019-04-21T07:11:42.184Z,26.25
2019-04-21T07:12:45.053Z,25.86
2019-04-21T07:13:44.427Z,26.06
2019-04-21T07:14:49.720Z,26.24
2019-04-21T07:15:50.943Z,26.06
2019-04-21T07:16:50.987Z,24.68
2019-04-21T07:17:50.011Z,26.18
2019-04-21T07:18:49.782Z,26.18
2019-04-21T07:19:49.890Z,25.89
2019-04-21T07:20:51.452Z,26.17
2019-04-21T07:21:53.938Z,25.96
2019-04-21T07:22:48.053Z,26.15
2019-04-21T07:23:52.291Z,26.73
2019-04-21T07:24:54.059Z,24.56
2019-04-21T07:25:53.119Z,25.65
2019-04-21T07:26:51.584Z,26.45
2019-04-21T07:27:50.616Z,25.68
2019-04-21T07:28:57.785Z,27.09
2019-04-21T07:30:56.637Z,27.80
2019-04-21T07:31:54.375Z,27.90
2019-04-21T07:34:52.180Z,28.00
2019-04-21T07:35:49.306Z,27.50
2019-04-21T07:36:54.905Z,27.72
2019-04-21T07:37:51.010Z,27.60
2019-04-21T07:38:45.259Z,27.80
2019-04-21T07:39:43.939Z,26.29
2019-04-21T07:40:42.910Z,26.25
2019-04-21T07:41:45.091Z,25.52
2019-04-21T07:42:47.028Z,25.04
2019-04-21T07:43:41.048Z,26.02
2019-04-21T07:44:44.609Z,25.28
2019-04-21T07:45:41.919Z,23.39
2019-04-21T07:46:38.474Z,23.55
2019-04-21T07:47:47.771Z,23.93
2019-04-21T07:48:43.215Z,22.73
2019-04-21T07:49:55.234Z,21.53
2019-04-21T07:50:48.234Z,21.23
2019-04-21T07:51:53.467Z,21.73
2019-04-21T07:52:51.382Z,22.13
2019-04-21T07:53:52.627Z,21.45
2019-04-21T07:54:57.191Z,22.63
2019-04-21T07:56:32.971Z,21.56
2019-04-21T07:57:37.923Z,22.55
2019-04-21T07:58:53.828Z,21.26
2019-04-21T07:59:56.443Z,21.26
2019-04-21T08:01:43.891Z,22.25
2019-04-21T08:02:49.736Z,21.25
2019-04-21T08:03:46.593Z,19.95
2019-04-21T08:05:45.757Z,19.70
2019-04-21T08:06:46.069Z,19.12
2019-04-21T08:07:52.046Z,19.41
2019-04-21T08:08:46.677Z,19.60
2019-04-21T08:09:47.228Z,18.91
2019-04-21T08:10:44.179Z,19.40
2019-04-21T08:11:46.257Z,19.60
2019-04-21T08:12:41.943Z,19.50
2019-04-21T08:13:48.780Z,20.66
2019-04-21T08:14:43.650Z,20.06
2019-04-21T08:15:44.220Z,19.57
2019-04-21T08:16:56.024Z,19.86
2019-04-21T08:18:50.201Z,19.12
2019-04-21T08:19:43.059Z,19.60
2019-04-21T08:20:45.199Z,19.01
2019-04-21T08:21:49.675Z,19.31
2019-04-21T08:22:51.739Z,19.29
2019-04-21T08:23:41.706Z,19.48
2019-04-21T08:24:50.825Z,19.18
2019-04-21T08:25:54.282Z,18.68
2019-04-21T08:26:57.600Z,18.87
2019-04-21T08:27:54.525Z,19.06
2019-04-21T08:28:49.487Z,19.07
2019-04-21T08:29:46.246Z,18.96
2019-04-21T08:30:48.551Z,18.38
2019-04-21T08:31:56.081Z,18.37
2019-04-21T08:32:57.158Z,18.07
2019-04-21T08:33:55.997Z,18.65
2019-04-21T08:34:55.956Z,19.27
2019-04-21T08:36:16.140Z,19.07
2019-04-21T08:36:46.176Z,19.10
2019-04-21T08:37:43.408Z,18.88
2019-04-21T08:38:52.543Z,18.77
2019-04-21T08:39:57.030Z,18.88
2019-04-21T08:40:44.097Z,19.17
2019-04-21T08:41:45.285Z,18.85
2019-04-21T08:42:46.640Z,18.74
2019-04-21T08:43:44.636Z,19.04
2019-04-21T08:44:47.918Z,18.64
2019-04-21T08:45:48.151Z,18.54
2019-04-21T08:46:48.765Z,17.87
2019-04-21T08:47:45.867Z,18.86
2019-04-21T08:48:48.100Z,19.18
2019-04-21T08:49:49.051Z,18.79
2019-04-21T08:50:43.302Z,18.66
2019-04-21T08:51:52.006Z,18.25
2019-04-21T08:54:04.912Z,17.25
2019-04-21T08:54:49.671Z,17.05
2019-04-21T08:55:50.778Z,17.40
2019-04-21T08:56:46.647Z,18.72
2019-04-21T08:58:04.134Z,19.82
2019-04-21T08:58:52.912Z,19.23
2019-04-21T08:59:48.562Z,19.34
2019-04-21T09:00:58.990Z,19.63
2019-04-21T09:01:43.098Z,18.70
2019-04-21T09:02:47.325Z,18.96
2019-04-21T09:03:43.044Z,17.08
2019-04-21T09:04:41.469Z,15.79
2019-04-21T09:05:45.090Z,15.32
2019-04-21T09:07:47.552Z,15.99
2019-04-21T09:09:57.865Z,16.20
2019-04-21T09:10:39.703Z,16.39
2019-04-21T09:11:43.248Z,15.61
2019-04-21T09:12:48.037Z,15.81
2019-04-21T09:13:46.120Z,15.45
2019-04-21T09:14:41.504Z,16.11
2019-04-21T09:15:46.255Z,16.41
2019-04-21T09:16:43.301Z,15.53
2019-04-21T09:17:39.552Z,14.35
2019-04-21T09:18:38.048Z,14.27
2019-04-21T09:19:51.896Z,15.33
2019-04-21T09:20:50.874Z,13.95
2019-04-21T09:21:45.518Z,14.54
2019-04-21T09:22:41.587Z,14.76
2019-04-21T09:23:44.829Z,15.45
2019-04-21T09:24:43.817Z,15.25
2019-04-21T09:25:46.472Z,16.93
2019-04-21T09:26:44.354Z,15.37
2019-04-21T09:27:42.454Z,14.69
2019-04-21T09:28:39.506Z,15.44
2019-04-21T09:29:32.495Z,15.84
2019-04-21T09:30:26.230Z,16.05
2019-04-21T09:31:29.154Z,17.25
2019-04-21T09:32:27.637Z,17.25
2019-04-21T09:33:34.504Z,15.78
2019-04-21T09:34:43.749Z,17.37
2019-04-21T09:35:24.564Z,18.47
2019-04-21T09:36:30.121Z,18.66
2019-04-21T09:37:39.339Z,17.98
2019-04-21T09:38:32.878Z,18.77
2019-04-21T09:39:28.115Z,17.32
2019-04-21T09:40:30.105Z,18.89
2019-04-21T09:41:25.972Z,17.91
2019-04-21T09:42:36.053Z,19.29
2019-04-21T09:43:35.831Z,18.90
2019-04-21T09:44:30.896Z,18.52
2019-04-21T09:45:24.575Z,18.82
2019-04-21T09:46:25.570Z,19.41
2019-04-21T09:47:33.624Z,20.59
2019-04-21T09:48:26.257Z,19.31
2019-04-21T09:49:27.170Z,19.12
2019-04-21T09:51:18.422Z,18.07
2019-04-21T09:52:20.901Z,19.95
2019-04-21T09:53:28.460Z,19.96
2019-04-21T09:54:24.867Z,21.28
2019-04-21T09:55:22.808Z,21.71
2019-04-21T09:56:28.551Z,23.25
2019-04-21T09:57:27.444Z,25.18
2019-04-21T09:58:27.347Z,24.90
2019-04-21T09:59:27.584Z,26.12
2019-04-21T10:00:21.141Z,26.84
2019-04-21T10:01:27.158Z,26.26
2019-04-21T10:02:32.475Z,27.67
2019-04-21T10:03:19.749Z,28.69
2019-04-21T10:04:18.518Z,28.50
2019-04-21T10:05:17.100Z,28.03
2019-04-21T10:06:18.984Z,29.52
2019-04-21T10:07:26.465Z,29.84
2019-04-21T10:08:18.796Z,29.75
2019-04-21T10:09:19.764Z,29.47
2019-04-21T10:10:17.275Z,28.37
2019-04-21T10:11:19.540Z,28.57
2019-04-21T10:12:17.125Z,30.88
2019-04-21T10:13:17.167Z,28.97
2019-04-21T10:14:18.137Z,30.38
2019-04-21T10:15:16.981Z,30.46
2019-04-21T10:16:18.068Z,30.78
2019-04-21T10:17:17.257Z,31.68
2019-04-21T10:18:17.440Z,31.28
2019-04-21T10:19:19.109Z,30.38
2019-04-21T10:20:17.200Z,30.18
2019-04-21T10:21:17.382Z,30.98
2019-04-21T10:22:17.115Z,31.38
2019-04-21T10:23:17.748Z,30.58
2019-04-21T10:24:17.956Z,30.18
2019-04-21T10:25:16.966Z,32.06
2019-04-21T10:26:16.875Z,32.67
2019-04-21T10:27:17.293Z,31.76
2019-04-21T10:28:17.175Z,29.27
2019-04-21T10:29:24.300Z,31.18
2019-04-21T10:30:17.866Z,30.88
2019-04-21T10:31:16.967Z,29.78
2019-04-21T10:32:18.747Z,30.18
2019-04-21T10:33:16.909Z,30.18
2019-04-21T10:34:17.140Z,29.38
2019-04-21T10:35:20.701Z,32.20
2019-04-21T10:36:19.102Z,32.20
2019-04-21T10:37:16.797Z,28.39
2019-04-21T10:38:28.243Z,29.41
2019-04-21T10:39:17.903Z,29.99
2019-04-21T10:40:18.037Z,30.31
2019-04-21T10:41:17.273Z,29.31
2019-04-21T10:42:17.360Z,29.52
2019-04-21T10:43:20.661Z,29.22
2019-04-21T10:44:18.996Z,30.04
2019-04-21T10:45:17.079Z,29.74
2019-04-21T10:46:17.014Z,30.34
2019-04-21T10:47:16.692Z,30.54
2019-04-21T10:48:16.900Z,31.14
2019-04-21T10:49:17.068Z,29.84
2019-04-21T10:51:57.232Z,30.04
2019-04-21T10:52:56.512Z,30.54
2019-04-21T10:53:57.932Z,28.44
2019-04-21T10:55:23.097Z,28.14
2019-04-21T10:56:11.529Z,30.04
2019-04-21T10:56:58.591Z,30.34
2019-04-21T10:57:56.438Z,30.14
2019-04-21T10:58:58.381Z,31.15
2019-04-21T10:59:58.219Z,30.45
2019-04-21T11:00:57.843Z,30.55
2019-04-21T11:01:56.834Z,30.55
2019-04-21T11:02:56.920Z,30.36
2019-04-21T11:03:56.382Z,30.67
2019-04-21T11:04:56.665Z,30.36
2019-04-21T11:05:56.682Z,31.17
2019-04-21T11:07:04.238Z,29.66
2019-04-21T11:08:08.925Z,29.86
2019-04-21T11:08:59.198Z,29.77
2019-04-21T11:09:58.081Z,31.27
2019-04-21T11:10:56.277Z,30.15
2019-04-21T11:11:57.733Z,29.45
2019-04-21T11:12:56.808Z,30.35
2019-04-21T11:13:56.812Z,29.27
2019-04-21T11:14:57.308Z,28.95
2019-04-21T11:15:57.111Z,29.36
2019-04-21T11:16:58.249Z,29.45
2019-04-21T11:17:56.202Z,28.15
2019-04-21T11:18:56.311Z,28.75
2019-04-21T11:19:57.002Z,29.65
2019-04-21T11:20:56.183Z,29.36
2019-04-21T11:21:56.890Z,28.86
2019-04-21T11:22:57.451Z,28.96
2019-04-21T11:23:56.568Z,29.36
2019-04-21T11:24:56.699Z,29.57
2019-04-21T11:25:56.127Z,29.16
2019-04-21T11:26:56.106Z,28.95
2019-04-21T11:27:56.096Z,29.55
2019-04-21T11:28:56.820Z,29.55
2019-04-21T11:29:56.067Z,28.85
2019-04-21T11:30:57.174Z,28.65
2019-04-21T11:31:56.935Z,30.55
2019-04-21T11:32:57.177Z,28.23
2019-04-21T11:33:57.419Z,28.05
2019-04-21T11:34:57.115Z,27.73
2019-04-21T11:35:57.322Z,28.94
2019-04-21T11:36:58.474Z,28.75
2019-04-21T11:38:06.074Z,28.45
2019-04-21T11:39:11.017Z,28.05
2019-04-21T11:40:03.356Z,27.83
2019-04-21T11:40:58.121Z,28.35
2019-04-21T11:41:57.456Z,27.75
2019-04-21T11:42:57.654Z,28.45
2019-04-21T11:43:57.165Z,27.95
2019-04-21T11:44:55.899Z,28.55
2019-04-21T11:45:58.204Z,28.65
2019-04-21T11:46:56.358Z,27.85
2019-04-21T11:48:04.065Z,27.75
2019-04-21T11:48:55.940Z,28.25
2019-04-21T11:49:57.055Z,27.55
2019-04-21T11:50:57.137Z,28.15
2019-04-21T11:51:56.547Z,28.05
2019-04-21T11:52:56.903Z,28.15
2019-04-21T11:53:56.918Z,28.25
2019-04-21T11:54:55.797Z,27.85
2019-04-21T11:55:56.998Z,27.65
2019-04-21T11:56:56.943Z,27.65
2019-04-21T11:57:56.588Z,27.35
2019-04-21T11:58:55.767Z,27.35
2019-04-21T11:59:55.719Z,28.05
2019-04-21T12:00:55.843Z,27.65
2019-04-21T12:01:55.789Z,26.75
2019-04-21T12:02:55.748Z,27.95
2019-04-21T12:03:55.775Z,28.75
2019-04-21T12:04:55.680Z,28.35
2019-04-21T12:05:55.672Z,28.64
2019-04-21T12:06:56.069Z,27.83
2019-04-21T12:07:58.400Z,28.74
2019-04-21T12:08:59.334Z,29.74
2019-04-21T12:09:57.537Z,28.74
2019-04-21T12:10:55.704Z,29.14
2019-04-21T12:11:56.920Z,28.23
2019-04-21T12:12:55.635Z,27.73
2019-04-21T12:13:56.290Z,30.54
2019-04-21T12:14:55.628Z,28.44
2019-04-21T12:15:57.033Z,27.73
2019-04-21T12:16:57.202Z,28.14
2019-04-21T12:17:56.445Z,27.94
2019-04-21T12:18:56.815Z,29.14
2019-04-21T12:19:56.927Z,28.53
2019-04-21T12:20:55.726Z,28.44
2019-04-21T12:22:05.110Z,27.64
2019-04-21T12:22:56.979Z,27.83
2019-04-21T12:23:56.619Z,28.03
2019-04-21T12:24:55.551Z,28.14
2019-04-21T12:25:56.831Z,28.44
2019-04-21T12:26:55.986Z,28.03
2019-04-21T12:27:58.174Z,28.23
2019-04-21T12:28:55.821Z,27.53
2019-04-21T12:29:57.616Z,28.03
2019-04-21T12:30:55.953Z,28.14
2019-04-21T12:31:55.388Z,27.94
2019-04-21T12:32:56.066Z,28.02
2019-04-21T12:33:56.162Z,28.32
2019-04-21T12:34:55.409Z,28.42
2019-04-21T12:35:55.648Z,27.71
2019-04-21T12:36:55.309Z,28.92
2019-04-21T12:37:56.405Z,28.91
2019-04-21T12:38:59.315Z,29.01
2019-04-21T12:39:56.843Z,29.41
2019-04-21T12:40:55.273Z,29.80
2019-04-21T12:41:56.375Z,29.01
2019-04-21T12:42:56.703Z,28.01
2019-04-21T12:43:55.345Z,29.91
2019-04-21T12:44:55.268Z,28.61
2019-04-21T12:45:58.048Z,30.49
2019-04-21T12:46:58.125Z,29.19
2019-04-21T12:47:55.738Z,29.69
2019-04-21T12:48:56.207Z,29.61
2019-04-21T12:49:55.199Z,28.21
2019-04-21T12:50:55.219Z,29.19
2019-04-21T12:51:55.531Z,31.01
2019-04-21T12:52:55.851Z,28.50
2019-04-21T12:54:01.891Z,28.31
2019-04-21T12:54:55.579Z,28.00
2019-04-21T12:55:56.191Z,29.61
2019-04-21T12:56:55.799Z,27.80
2019-04-21T12:57:55.254Z,28.71
2019-04-21T12:58:55.394Z,26.91
2019-04-21T12:59:58.355Z,27.71
2019-04-21T13:00:55.045Z,28.21
2019-04-21T13:01:56.947Z,29.11
2019-04-21T13:02:56.039Z,27.41
2019-04-21T13:03:56.037Z,28.01
2019-04-21T13:04:55.869Z,28.11
2019-04-21T13:05:58.032Z,28.11
2019-04-21T13:06:55.270Z,27.91
2019-04-21T13:07:57.469Z,28.31
2019-04-21T13:09:01.479Z,26.71
2019-04-21T13:09:55.981Z,27.61
2019-04-21T13:10:56.114Z,28.51
2019-04-21T13:11:55.178Z,27.51
2019-04-21T13:12:56.205Z,27.01
2019-04-21T13:13:55.737Z,26.41
2019-04-21T13:14:57.463Z,26.10
2019-04-21T13:15:55.956Z,26.72
2019-04-21T13:16:55.173Z,26.72
2019-04-21T13:17:58.382Z,26.52
2019-04-21T13:18:55.376Z,26.82
2019-04-21T13:19:54.946Z,27.44
2019-04-21T13:20:55.951Z,28.23
2019-04-21T13:21:56.116Z,28.02
2019-04-21T13:22:54.800Z,28.42
2019-04-21T13:23:56.899Z,27.82
2019-04-21T13:24:55.828Z,28.02
2019-04-21T13:25:55.999Z,28.02
2019-04-21T13:26:58.434Z,28.31
2019-04-21T13:27:56.792Z,27.61
2019-04-21T13:28:54.755Z,27.21
2019-04-21T13:29:54.754Z,27.81
2019-04-21T13:30:55.983Z,26.81
2019-04-21T13:31:56.172Z,26.91
2019-04-21T13:32:55.514Z,27.81
2019-04-21T13:33:57.894Z,27.71
2019-04-21T13:34:54.977Z,27.61
2019-04-21T13:35:55.151Z,29.51
2019-04-21T13:36:54.674Z,29.61
2019-04-21T13:37:54.733Z,30.52
2019-04-21T13:39:24.943Z,27.72
2019-04-21T13:40:21.132Z,27.82
2019-04-21T13:41:12.219Z,27.92
2019-04-21T13:42:06.538Z,28.52
2019-04-21T13:43:00.733Z,28.02
2019-04-21T13:43:56.736Z,27.82
2019-04-21T13:44:56.243Z,29.22
2019-04-21T13:45:54.608Z,27.52
2019-04-21T13:46:54.714Z,28.71
2019-04-21T13:47:54.771Z,28.91
2019-04-21T13:48:54.844Z,28.71
2019-04-21T13:49:57.394Z,28.71
2019-04-21T13:50:55.289Z,27.81
2019-04-21T13:51:54.513Z,28.12
2019-04-21T13:52:54.577Z,29.11
2019-04-21T13:53:55.515Z,28.01
2019-04-21T13:54:55.810Z,28.01
2019-04-21T13:55:54.469Z,28.31
2019-04-21T13:56:54.526Z,29.71
2019-04-21T13:57:54.615Z,31.51
2019-04-21T13:58:55.672Z,30.81
2019-04-21T13:59:55.099Z,29.41
2019-04-21T14:00:55.980Z,29.11
2019-04-21T14:01:54.363Z,29.61